createdAt,value
2019-03-25T00:01:05.128Z,99999.62
2019-03-25T00:03:38.145Z,99995.89
2019-03-25T00:06:11.088Z,99994.63
2019-03-25T00:08:44.144Z,99994.82
2019-03-25T00:11:17.207Z,99995.25
2019-03-25T00:13:50.225Z,100004.27
2019-03-25T00:16:23.227Z,100002.59
2019-03-25T00:18:56.263Z,99994.90
2019-03-25T00:21:29.313Z,99993.14
2019-03-25T00:24:02.259Z,99994.75
2019-03-25T00:26:35.383Z,99995.00
2019-03-25T00:29:08.325Z,99991.38
2019-03-25T00:31:41.372Z,99990.09
2019-03-25T00:34:14.398Z,99981.27
2019-03-25T00:36:47.372Z,99985.19
2019-03-25T00:39:20.325Z,99983.84
2019-03-25T00:41:53.371Z,99991.31
2019-03-25T00:44:26.331Z,99992.28
2019-03-25T00:46:59.284Z,99986.16
2019-03-25T00:49:32.414Z,99986.81
2019-03-25T00:52:05.440Z,99978.78
2019-03-25T00:54:49.332Z,99985.39
2019-03-25T00:57:13.161Z,99985.08
2019-03-25T00:59:46.112Z,99981.19
2019-03-25T01:02:19.157Z,99984.26
2019-03-25T01:04:52.198Z,99992.11
2019-03-25T01:07:26.420Z,99985.45
2019-03-25T01:09:59.536Z,99986.06
2019-03-25T01:12:32.488Z,99981.95
2019-03-25T01:15:05.599Z,99986.50
2019-03-25T01:17:38.632Z,99988.41
2019-03-25T01:20:11.624Z,99983.07
2019-03-25T01:22:44.560Z,99981.14
2019-03-25T01:25:17.600Z,99982.67
2019-03-25T01:27:50.543Z,99975.70
2019-03-25T01:30:23.506Z,99979.75
2019-03-25T01:32:56.459Z,99977.73
2019-03-25T01:35:29.432Z,99980.51
2019-03-25T01:38:09.374Z,99977.22
2019-03-25T01:40:42.414Z,99976.69
2019-03-25T01:43:15.361Z,99973.75
2019-03-25T01:45:48.332Z,99978.59
2019-03-25T01:48:21.282Z,99974.67
2019-03-25T01:50:54.260Z,99971.77
2019-03-25T01:53:27.203Z,99967.94
2019-03-25T01:56:00.188Z,99965.00
2019-03-25T01:58:33.132Z,99962.78
2019-03-25T02:01:06.102Z,99965.55
2019-03-25T02:03:39.058Z,99962.14
2019-03-25T02:06:12.069Z,99957.21
2019-03-25T02:08:45.019Z,99955.86
2019-03-25T02:11:18.418Z,99947.87
2019-03-25T02:13:51.293Z,99949.50
2019-03-25T02:16:24.331Z,99948.91
2019-03-25T02:18:57.281Z,99952.40
2019-03-25T02:21:33.612Z,99943.61
2019-03-25T02:24:06.665Z,99947.02
2019-03-25T02:26:39.790Z,99941.36
2019-03-25T02:29:12.811Z,99945.53
2019-03-25T02:31:45.797Z,99943.52
2019-03-25T02:34:18.674Z,99934.75
2019-03-25T02:36:51.684Z,99935.48
2019-03-25T02:39:24.660Z,99934.70
2019-03-25T02:41:57.605Z,99941.69
2019-03-25T02:44:30.703Z,99942.88
2019-03-25T02:47:03.677Z,99931.89
2019-03-25T02:49:36.626Z,99938.80
2019-03-25T02:52:09.590Z,99938.16
2019-03-25T02:54:42.525Z,99944.50
2019-03-25T02:57:15.516Z,99941.48
2019-03-25T02:59:48.469Z,99946.47
2019-03-25T03:02:21.442Z,99946.27
2019-03-25T03:04:54.511Z,99940.20
2019-03-25T03:07:27.486Z,99938.28
2019-03-25T03:10:00.620Z,99942.27
2019-03-25T03:12:33.606Z,99936.09
2019-03-25T03:15:07.783Z,99937.88
2019-03-25T03:17:40.821Z,99933.92
2019-03-25T03:20:13.812Z,99933.40
2019-03-25T03:22:46.787Z,99929.32
2019-03-25T03:25:19.980Z,99927.25
2019-03-25T03:27:52.926Z,99924.16
2019-03-25T03:30:26.034Z,99920.41
2019-03-25T03:32:59.016Z,99922.66
2019-03-25T03:35:31.937Z,99921.85
2019-03-25T03:38:04.937Z,99914.66
2019-03-25T03:40:37.967Z,99916.61
2019-03-25T03:43:10.857Z,99911.13
2019-03-25T03:45:43.793Z,99908.53
2019-03-25T03:48:16.825Z,99912.14
2019-03-25T03:50:49.832Z,99912.48
2019-03-25T03:53:22.817Z,99906.75
2019-03-25T03:56:11.592Z,99905.02
2019-03-25T03:58:30.430Z,99900.26
2019-03-25T04:01:03.611Z,99898.58
2019-03-25T04:03:36.590Z,99893.80
2019-03-25T04:06:09.570Z,99890.81
2019-03-25T04:08:42.570Z,99893.89
2019-03-25T04:11:15.517Z,99886.66
2019-03-25T04:13:48.573Z,99886.90
2019-03-25T04:16:21.518Z,99889.30
2019-03-25T04:18:54.492Z,99889.38
2019-03-25T04:21:27.462Z,99896.04
2019-03-25T04:24:00.517Z,99891.12
2019-03-25T04:26:33.461Z,99889.31
2019-03-25T04:29:06.427Z,99890.29
2019-03-25T04:31:39.375Z,99892.58
2019-03-25T04:34:12.340Z,99890.41
2019-03-25T04:36:45.314Z,99884.61
2019-03-25T04:39:18.366Z,99880.80
2019-03-25T04:41:51.430Z,99874.92
2019-03-25T04:44:24.363Z,99875.09
2019-03-25T04:46:57.321Z,99879.28
2019-03-25T04:49:30.352Z,99887.97
2019-03-25T04:52:03.317Z,99880.21
2019-03-25T04:54:36.294Z,99881.06
2019-03-25T04:57:09.723Z,99885.17
2019-03-25T04:59:42.668Z,99873.82
2019-03-25T05:02:15.647Z,99876.38
2019-03-25T05:04:48.619Z,99876.19
2019-03-25T05:07:21.614Z,99879.23
2019-03-25T05:09:54.480Z,99881.42
2019-03-25T05:12:27.448Z,99877.73
2019-03-25T05:15:00.463Z,99878.49
2019-03-25T05:17:33.454Z,99877.94
2019-03-25T05:20:07.469Z,99875.90
2019-03-25T05:22:40.430Z,99881.58
2019-03-25T05:25:13.372Z,99882.78
2019-03-25T05:27:46.333Z,99878.87
2019-03-25T05:30:19.354Z,99867.61
2019-03-25T05:32:52.318Z,99856.81
2019-03-25T05:35:25.245Z,99852.16
2019-03-25T05:37:58.356Z,99856.30
2019-03-25T05:40:31.288Z,99858.97
2019-03-25T05:43:04.256Z,99856.41
2019-03-25T05:45:37.197Z,99859.14
2019-03-25T05:48:10.229Z,99855.42
2019-03-25T05:50:43.175Z,99856.06
2019-03-25T05:53:16.149Z,99850.95
2019-03-25T05:55:49.095Z,99853.48
2019-03-25T05:58:22.148Z,99846.23
2019-03-25T06:00:55.094Z,99839.02
2019-03-25T06:03:28.089Z,99839.43
2019-03-25T06:06:00.976Z,99846.14
2019-03-25T06:08:37.260Z,99849.72
2019-03-25T06:11:10.390Z,99862.89
2019-03-25T06:13:43.374Z,99856.94
2019-03-25T06:16:16.328Z,99862.22
2019-03-25T06:18:49.296Z,99854.22
2019-03-25T06:21:23.292Z,99850.52
2019-03-25T06:23:56.267Z,99849.56
2019-03-25T06:26:29.278Z,99843.37
2019-03-25T06:29:02.478Z,99846.69
2019-03-25T06:31:35.466Z,99850.64
2019-03-25T06:34:08.435Z,99849.14
2019-03-25T06:36:41.466Z,99832.48
2019-03-25T06:39:14.431Z,99842.06
2019-03-25T06:41:47.443Z,99847.84
2019-03-25T06:44:20.495Z,99851.27
2019-03-25T06:46:53.440Z,99848.29
2019-03-25T06:49:26.410Z,99857.67
2019-03-25T06:51:59.506Z,99848.08
2019-03-25T06:54:32.562Z,99848.30
2019-03-25T06:57:05.587Z,99847.91
2019-03-25T06:59:38.567Z,99841.64
2019-03-25T07:02:11.612Z,99842.32
2019-03-25T07:04:44.586Z,99853.47
2019-03-25T07:07:17.620Z,99828.95
2019-03-25T07:09:50.580Z,99825.05
2019-03-25T07:12:23.684Z,99812.64
2019-03-25T07:14:56.735Z,99813.22
2019-03-25T07:17:31.300Z,99825.52
2019-03-25T07:20:09.520Z,99834.63
2019-03-25T07:22:42.540Z,99832.58
2019-03-25T07:25:15.614Z,99836.45
2019-03-25T07:27:48.553Z,99830.94
2019-03-25T07:30:21.598Z,99832.77
2019-03-25T07:32:54.556Z,99823.61
2019-03-25T07:35:27.565Z,99839.11
2019-03-25T07:38:00.615Z,99842.42
2019-03-25T07:40:33.572Z,99845.86
2019-03-25T07:43:06.585Z,99844.75
2019-03-25T07:45:39.642Z,99842.19
2019-03-25T07:48:12.676Z,99835.02
2019-03-25T07:50:45.637Z,99837.62
2019-03-25T07:53:18.704Z,99844.67
2019-03-25T07:55:51.670Z,99840.69
2019-03-25T07:58:24.633Z,99841.59
2019-03-25T08:00:57.670Z,99837.41
2019-03-25T08:03:30.627Z,99841.53
2019-03-25T08:06:03.674Z,99841.28
2019-03-25T08:08:36.731Z,99845.91
2019-03-25T08:11:09.740Z,99845.62
2019-03-25T08:13:42.683Z,99848.48
2019-03-25T08:16:15.734Z,99850.97
2019-03-25T08:18:48.655Z,99859.95
2019-03-25T08:21:21.622Z,99862.16
2019-03-25T08:23:54.584Z,99852.44
2019-03-25T08:26:27.525Z,99862.75
2019-03-25T08:29:00.484Z,99863.14
2019-03-25T08:31:33.450Z,99866.45
2019-03-25T08:34:06.543Z,99866.70
2019-03-25T08:36:39.498Z,99869.72
2019-03-25T08:39:12.548Z,99866.38
2019-03-25T08:41:45.504Z,99873.36
2019-03-25T08:44:18.460Z,99879.00
2019-03-25T08:46:54.614Z,99885.20
2019-03-25T08:49:27.551Z,99885.20
2019-03-25T08:52:00.518Z,99894.98
2019-03-25T08:54:33.443Z,99897.84
2019-03-25T08:57:06.416Z,99890.66
2019-03-25T08:59:40.448Z,99887.37
2019-03-25T09:02:13.475Z,99892.97
2019-03-25T09:04:46.410Z,99890.78
2019-03-25T09:07:19.426Z,99896.12
2019-03-25T09:09:52.418Z,99898.59
2019-03-25T09:12:25.377Z,99893.80
2019-03-25T09:14:58.312Z,99898.77
2019-03-25T09:17:31.282Z,99901.30
2019-03-25T09:20:04.785Z,99903.27
2019-03-25T09:22:37.757Z,99902.01
2019-03-25T09:25:10.786Z,99896.38
2019-03-25T09:27:43.833Z,99901.77
2019-03-25T09:30:54.851Z,99894.83
2019-03-25T09:33:27.803Z,99888.60
2019-03-25T09:36:00.834Z,99889.34
2019-03-25T09:38:33.889Z,99886.20
2019-03-25T09:41:06.907Z,99892.16
2019-03-25T09:43:40.044Z,99885.63
2019-03-25T09:46:12.993Z,99894.27
2019-03-25T09:48:46.123Z,99895.72
2019-03-25T09:51:19.141Z,99891.13
2019-03-25T09:53:52.105Z,99892.86
2019-03-25T09:56:25.034Z,99890.66
2019-03-25T09:58:58.072Z,99894.31
2019-03-25T10:01:30.942Z,99895.17
2019-03-25T10:04:03.901Z,99893.12
2019-03-25T10:06:36.916Z,99894.28
2019-03-25T10:09:11.892Z,99889.55
2019-03-25T10:11:44.909Z,99884.98
2019-03-25T10:14:17.867Z,99882.05
2019-03-25T10:16:51.947Z,99870.41
2019-03-25T10:19:25.050Z,99858.02
2019-03-25T10:21:58.012Z,99863.45
2019-03-25T10:24:30.950Z,99866.78
2019-03-25T10:27:03.910Z,99852.26
2019-03-25T10:29:36.910Z,99843.03
2019-03-25T10:32:09.875Z,99840.87
2019-03-25T10:34:42.831Z,99843.27
2019-03-25T10:37:16.019Z,99842.47
2019-03-25T10:39:48.973Z,99837.00
2019-03-25T10:42:22.014Z,99833.27
2019-03-25T10:44:55.018Z,99832.91
2019-03-25T10:47:28.098Z,99830.12
2019-03-25T10:50:01.194Z,99824.07
2019-03-25T10:52:34.312Z,99828.80
2019-03-25T10:55:07.931Z,99826.97
2019-03-25T10:57:41.318Z,99822.45
2019-03-25T11:00:14.488Z,99820.49
2019-03-25T11:02:47.441Z,99817.11
2019-03-25T11:05:20.390Z,99809.56
2019-03-25T11:07:53.358Z,99811.05
2019-03-25T11:10:26.375Z,99808.31
2019-03-25T11:13:00.394Z,99807.11
2019-03-25T11:15:33.350Z,99803.03
2019-03-25T11:18:06.306Z,99809.65
2019-03-25T11:20:39.244Z,99803.08
2019-03-25T11:23:12.205Z,99812.56
2019-03-25T11:25:45.436Z,99816.09
2019-03-25T11:28:18.460Z,99820.97
2019-03-25T11:30:57.719Z,99808.03
2019-03-25T11:33:30.657Z,99812.44
2019-03-25T11:36:03.617Z,99816.46
2019-03-25T11:38:36.632Z,99825.20
2019-03-25T11:41:09.770Z,99815.52
2019-03-25T11:43:42.706Z,99815.70
2019-03-25T11:46:15.665Z,99809.01
2019-03-25T11:48:48.692Z,99807.97
2019-03-25T11:51:21.699Z,99810.53
2019-03-25T11:53:54.668Z,99805.86
2019-03-25T11:56:27.638Z,99802.47
2019-03-25T11:59:02.891Z,99803.22
2019-03-25T12:01:35.229Z,99802.75
2019-03-25T12:04:08.160Z,99802.97
2019-03-25T12:06:41.146Z,99787.75
2019-03-25T12:09:14.183Z,99784.55
2019-03-25T12:11:47.137Z,99780.80
2019-03-25T12:14:20.087Z,99782.83
2019-03-25T12:16:53.105Z,99783.42
2019-03-25T12:19:26.036Z,99813.53
2019-03-25T12:21:59.075Z,99824.22
2019-03-25T12:24:32.043Z,99818.83
2019-03-25T12:27:05.006Z,99824.77
2019-03-25T12:29:38.035Z,99827.27
2019-03-25T12:32:11.045Z,99825.23
2019-03-25T12:34:44.074Z,99827.09
2019-03-25T12:37:17.091Z,99822.03
2019-03-25T12:39:50.206Z,99819.66
2019-03-25T12:42:23.245Z,99823.34
2019-03-25T12:44:56.256Z,99820.28
2019-03-25T12:47:29.217Z,99818.91
2019-03-25T12:50:02.143Z,99817.61
2019-03-25T12:52:35.105Z,99820.91
2019-03-25T12:55:08.055Z,99828.86
2019-03-25T12:57:41.022Z,99856.77
2019-03-25T13:00:13.979Z,99856.11
2019-03-25T13:02:46.934Z,99861.20
2019-03-25T13:05:19.888Z,99851.34
2019-03-25T13:07:52.842Z,99855.66
2019-03-25T13:10:25.875Z,99845.70
2019-03-25T13:12:59.121Z,99845.55
2019-03-25T13:15:33.191Z,99845.00
2019-03-25T13:18:06.449Z,99858.72
2019-03-25T13:20:39.420Z,99864.10
2019-03-25T13:23:12.358Z,99861.96
2019-03-25T13:25:45.330Z,99860.95
2019-03-25T13:28:19.507Z,99858.43
2019-03-25T13:30:52.535Z,99864.67
2019-03-25T13:33:25.567Z,99856.45
2019-03-25T13:35:58.502Z,99849.27
2019-03-25T13:38:31.732Z,99842.55
2019-03-25T13:41:06.221Z,99845.11
2019-03-25T13:43:43.840Z,99837.53
2019-03-25T13:46:17.155Z,99841.27
2019-03-25T13:48:50.117Z,99850.07
2019-03-25T13:51:23.057Z,99852.47
2019-03-25T13:53:56.021Z,99844.94
2019-03-25T13:56:28.996Z,99836.89
2019-03-25T13:59:04.519Z,99844.84
2019-03-25T14:01:36.671Z,99845.80
2019-03-25T14:04:09.807Z,99854.38
2019-03-25T14:06:42.854Z,99854.20
2019-03-25T14:09:15.917Z,99850.64
2019-03-25T14:11:48.794Z,99861.95
2019-03-25T14:14:21.777Z,99870.38
2019-03-25T14:16:54.718Z,99884.56
2019-03-25T14:19:29.342Z,99874.91
2019-03-25T14:22:02.601Z,99879.00
2019-03-25T14:24:35.571Z,99867.83
2019-03-25T14:27:08.590Z,99869.03
2019-03-25T14:29:41.642Z,99858.93
2019-03-25T14:32:14.625Z,99859.48
2019-03-25T14:34:47.629Z,99853.18
2019-03-25T14:37:20.667Z,99851.66
2019-03-25T14:39:53.724Z,99856.08
2019-03-25T14:42:26.820Z,99855.23
2019-03-25T14:44:59.779Z,99851.66
2019-03-25T14:47:32.707Z,99865.88
2019-03-25T14:50:06.601Z,99869.01
2019-03-25T14:52:40.614Z,99911.63
2019-03-25T14:55:13.577Z,99909.77
2019-03-25T14:57:46.611Z,99912.48
2019-03-25T15:00:25.169Z,99915.77
2019-03-25T15:02:54.347Z,99919.45
2019-03-25T15:05:27.323Z,99920.16
2019-03-25T15:08:00.289Z,99922.34
2019-03-25T15:10:33.324Z,99928.99
2019-03-25T15:13:06.444Z,99929.57
2019-03-25T15:15:39.640Z,99926.92
2019-03-25T15:18:15.852Z,99935.49
2019-03-25T15:20:47.343Z,99933.12
2019-03-25T15:23:20.293Z,99933.95
2019-03-25T15:25:53.440Z,99936.45
2019-03-25T15:28:26.406Z,99940.08
2019-03-25T15:31:01.666Z,99945.80
2019-03-25T15:33:34.610Z,99943.08
2019-03-25T15:36:07.674Z,99944.31
2019-03-25T15:38:40.689Z,99932.73
2019-03-25T15:41:13.753Z,99930.39
2019-03-25T15:43:46.838Z,99937.94
2019-03-25T15:46:20.114Z,99943.41
2019-03-25T15:48:53.368Z,99938.92
2019-03-25T15:51:26.339Z,99941.27
2019-03-25T15:53:59.387Z,99948.61
2019-03-25T15:56:32.433Z,99951.06
2019-03-25T15:59:05.607Z,99945.27
2019-03-25T16:01:38.606Z,99949.14
2019-03-25T16:04:14.157Z,99946.77
2019-03-25T16:06:46.946Z,99951.23
2019-03-25T16:09:19.959Z,99952.80
2019-03-25T16:11:53.038Z,99953.02
2019-03-25T16:14:26.145Z,99948.89
2019-03-25T16:16:59.366Z,99943.41
2019-03-25T16:19:33.475Z,99935.75
2019-03-25T16:22:06.959Z,99937.81
2019-03-25T16:24:40.143Z,99939.63
2019-03-25T16:27:14.220Z,99939.53
2019-03-25T16:29:47.357Z,99935.02
2019-03-25T16:32:20.341Z,99943.59
2019-03-25T16:34:53.470Z,99936.89
2019-03-25T16:37:26.409Z,99944.62
2019-03-25T16:39:59.396Z,99952.02
2019-03-25T16:42:32.413Z,99948.06
2019-03-25T16:45:05.418Z,99953.36
2019-03-25T16:47:38.404Z,99950.48
2019-03-25T16:50:11.847Z,99952.88
2019-03-25T16:52:44.793Z,99960.72
2019-03-25T16:55:18.062Z,99963.70
2019-03-25T16:57:51.030Z,99966.10
2019-03-25T17:00:27.640Z,99969.02
2019-03-25T17:02:58.932Z,99964.25
2019-03-25T17:05:31.962Z,99966.81
2019-03-25T17:08:04.951Z,99974.81
2019-03-25T17:10:37.993Z,99973.33
2019-03-25T17:13:10.886Z,99984.23
2019-03-25T17:15:43.944Z,99982.20
2019-03-25T17:18:16.905Z,99982.53
2019-03-25T17:20:49.929Z,99983.81
2019-03-25T17:23:22.971Z,99986.76
2019-03-25T17:25:55.918Z,99990.01
2019-03-25T17:28:29.002Z,99991.92
2019-03-25T17:31:03.143Z,99988.09
2019-03-25T17:33:36.446Z,99990.56
2019-03-25T17:36:09.404Z,99993.55
2019-03-25T17:38:42.421Z,99999.03
2019-03-25T17:41:15.364Z,99998.08
2019-03-25T17:43:48.482Z,100002.48
2019-03-25T17:46:21.482Z,100003.73
2019-03-25T17:48:54.476Z,100009.27
2019-03-25T17:51:27.505Z,100018.05
2019-03-25T17:54:00.477Z,100028.40
2019-03-25T17:56:33.630Z,100034.13
2019-03-25T17:59:06.886Z,100038.52
2019-03-25T18:01:39.955Z,100036.80
2019-03-25T18:04:13.005Z,100040.94
2019-03-25T18:06:47.628Z,100040.03
2019-03-25T18:09:20.664Z,100046.20
2019-03-25T18:11:53.859Z,100050.30
2019-03-25T18:14:26.822Z,100054.57
2019-03-25T18:17:00.005Z,100057.00
2019-03-25T18:19:33.152Z,100064.20
2019-03-25T18:22:06.124Z,100076.80
2019-03-25T18:24:39.362Z,100073.02
2019-03-25T18:27:12.353Z,100087.22
2019-03-25T18:29:45.434Z,100089.56
2019-03-25T18:32:18.800Z,100091.01
2019-03-25T18:34:51.839Z,100102.11
2019-03-25T18:37:25.129Z,100117.36
2019-03-25T18:39:58.215Z,100122.61
2019-03-25T18:42:31.166Z,100122.24
2019-03-25T18:45:04.375Z,100123.59
2019-03-25T18:47:37.413Z,100118.35
2019-03-25T18:50:10.472Z,100124.34
2019-03-25T18:52:43.442Z,100128.01
2019-03-25T18:55:16.534Z,100138.53
2019-03-25T18:57:49.511Z,100150.52
2019-03-25T19:00:33.439Z,100148.77
2019-03-25T19:03:06.379Z,100149.83
2019-03-25T19:05:40.431Z,100156.69
2019-03-25T19:08:14.575Z,100150.16
2019-03-25T19:10:47.553Z,100153.73
2019-03-25T19:13:21.679Z,100151.89
2019-03-25T19:15:54.653Z,100149.54
2019-03-25T19:18:28.682Z,100155.91
2019-03-25T19:21:01.680Z,100161.65
2019-03-25T19:23:34.672Z,100164.98
2019-03-25T19:26:07.641Z,100173.62
2019-03-25T19:28:40.624Z,100175.19
2019-03-25T19:31:15.989Z,100183.94
2019-03-25T19:33:50.024Z,100192.08
2019-03-25T19:36:23.001Z,100200.45
2019-03-25T19:38:56.111Z,100211.70
2019-03-25T19:41:32.430Z,100214.64
2019-03-25T19:44:03.643Z,100210.42
2019-03-25T19:46:36.599Z,100221.49
2019-03-25T19:49:09.614Z,100217.65
2019-03-25T19:51:42.665Z,100222.38
2019-03-25T19:54:16.822Z,100224.36
2019-03-25T19:56:49.797Z,100220.94
2019-03-25T19:59:22.759Z,100223.11
2019-03-25T20:01:55.788Z,100231.78
2019-03-25T20:04:28.964Z,100236.14
2019-03-25T20:07:02.017Z,100239.74
2019-03-25T20:09:35.057Z,100249.81
2019-03-25T20:12:08.184Z,100255.02
2019-03-25T20:14:41.304Z,100253.88
2019-03-25T20:17:14.366Z,100256.25
2019-03-25T20:19:47.394Z,100262.02
2019-03-25T20:22:20.413Z,100268.56
2019-03-25T20:24:53.365Z,100268.31
2019-03-25T20:27:26.343Z,100264.75
2019-03-25T20:29:59.289Z,100271.03
2019-03-25T20:32:32.419Z,100275.54
2019-03-25T20:35:05.989Z,100275.84
2019-03-25T20:37:39.108Z,100280.64
2019-03-25T20:40:12.202Z,100288.42
2019-03-25T20:42:45.174Z,100291.13
2019-03-25T20:45:18.582Z,100296.30
2019-03-25T20:47:51.815Z,100300.31
2019-03-25T20:50:24.728Z,100296.94
2019-03-25T20:52:57.787Z,100297.93
2019-03-25T20:55:30.931Z,100307.71
2019-03-25T20:58:05.149Z,100307.28
2019-03-25T21:00:52.353Z,100306.83
2019-03-25T21:03:26.440Z,100304.58
2019-03-25T21:05:59.507Z,100313.12
2019-03-25T21:08:32.535Z,100318.32
2019-03-25T21:11:05.578Z,100324.70
2019-03-25T21:13:38.627Z,100328.87
2019-03-25T21:16:11.688Z,100330.62
2019-03-25T21:18:44.797Z,100329.97
2019-03-25T21:21:17.724Z,100327.47
2019-03-25T21:23:50.746Z,100327.19
2019-03-25T21:26:23.817Z,100334.44
2019-03-25T21:28:56.844Z,100339.33
2019-03-25T21:31:29.941Z,100342.52
2019-03-25T21:34:03.056Z,100347.53
2019-03-25T21:36:36.051Z,100352.06
2019-03-25T21:39:09.198Z,100353.98
2019-03-25T21:41:42.175Z,100358.89
2019-03-25T21:44:15.271Z,100361.20
2019-03-25T21:46:48.315Z,100362.13
2019-03-25T21:49:21.285Z,100377.78
2019-03-25T21:51:54.264Z,100375.72
2019-03-25T21:54:27.333Z,100369.27
2019-03-25T21:57:00.530Z,100366.06
2019-03-25T21:59:33.553Z,100362.52
2019-03-25T22:02:06.553Z,100359.55
2019-03-25T22:04:39.672Z,100367.06
2019-03-25T22:07:12.803Z,100374.12
2019-03-25T22:09:45.864Z,100384.46
2019-03-25T22:12:18.812Z,100390.94
2019-03-25T22:14:51.923Z,100395.92
2019-03-25T22:17:24.886Z,100400.88
2019-03-25T22:19:57.850Z,100396.59
2019-03-25T22:22:30.733Z,100392.80
2019-03-25T22:25:03.732Z,100392.26
2019-03-25T22:27:36.854Z,100388.02
2019-03-25T22:30:09.821Z,100393.56
2019-03-25T22:32:42.792Z,100391.68
2019-03-25T22:35:15.759Z,100394.49
2019-03-25T22:37:48.784Z,100397.66
2019-03-25T22:40:21.830Z,100394.28
2019-03-25T22:42:55.992Z,100401.07
2019-03-25T22:45:31.362Z,100394.58
2019-03-25T22:48:07.161Z,100396.78
2019-03-25T22:50:39.053Z,100398.02
2019-03-25T22:53:12.011Z,100404.30
2019-03-25T22:55:45.055Z,100411.42
2019-03-25T22:58:17.993Z,100417.05
2019-03-25T23:00:51.041Z,100424.18
2019-03-25T23:03:24.063Z,100420.91
2019-03-25T23:05:57.108Z,100423.52
2019-03-25T23:08:30.112Z,100433.41
2019-03-25T23:11:03.356Z,100437.88
2019-03-25T23:13:36.327Z,100437.50
2019-03-25T23:16:09.291Z,100440.83
2019-03-25T23:18:42.239Z,100443.16
2019-03-25T23:21:15.291Z,100444.00
2019-03-25T23:23:48.234Z,100443.01
2019-03-25T23:26:21.212Z,100447.73
2019-03-25T23:28:54.211Z,100446.33
2019-03-25T23:31:27.179Z,100451.75
2019-03-25T23:34:00.341Z,100463.25
2019-03-25T23:36:33.388Z,100457.55
2019-03-25T23:39:08.355Z,100460.20
2019-03-25T23:41:41.324Z,100462.84
2019-03-25T23:44:14.271Z,100468.53
2019-03-25T23:46:48.305Z,100459.55
2019-03-25T23:49:21.271Z,100466.84
2019-03-25T23:51:54.211Z,100463.97
2019-03-25T23:54:27.253Z,100472.66
2019-03-25T23:57:00.372Z,100473.04
2019-03-25T23:59:33.253Z,100479.55
